地図

経路データ

SID SEASON NUMBER BASIN SUBBASIN NAME ISO_TIME NATURE LAT LON WMO_WIND WMO_PRES WMO_AGENCY TRACK_TYPE DIST2LAND LANDFALL IFLAG USA_AGENCY USA_ATCF_ID USA_LAT USA_LON USA_RECORD USA_STATUS USA_WIND USA_PRES USA_SSHS USA_R34_NE USA_R34_SE USA_R34_SW USA_R34_NW USA_R50_NE USA_R50_SE USA_R50_SW USA_R50_NW USA_R64_NE USA_R64_SE USA_R64_SW USA_R64_NW USA_POCI USA_ROCI USA_RMW USA_EYE TOKYO_LAT TOKYO_LON TOKYO_GRADE TOKYO_WIND TOKYO_PRES TOKYO_R50_DIR TOKYO_R50_LONG TOKYO_R50_SHORT TOKYO_R30_DIR TOKYO_R30_LONG TOKYO_R30_SHORT TOKYO_LAND CMA_LAT CMA_LON CMA_CAT CMA_WIND CMA_PRES HKO_LAT HKO_LON HKO_CAT HKO_WIND HKO_PRES NEWDELHI_LAT NEWDELHI_LON NEWDELHI_GRADE NEWDELHI_WIND NEWDELHI_PRES NEWDELHI_CI NEWDELHI_DP NEWDELHI_POCI REUNION_LAT REUNION_LON REUNION_TYPE REUNION_WIND REUNION_PRES REUNION_TNUM REUNION_CI REUNION_RMW REUNION_R34_NE REUNION_R34_SE REUNION_R34_SW REUNION_R34_NW REUNION_R50_NE REUNION_R50_SE REUNION_R50_SW REUNION_R50_NW REUNION_R64_NE REUNION_R64_SE REUNION_R64_SW REUNION_R64_NW BOM_LAT BOM_LON BOM_TYPE BOM_WIND BOM_PRES BOM_TNUM BOM_CI BOM_RMW BOM_R34_NE BOM_R34_SE BOM_R34_SW BOM_R34_NW BOM_R50_NE BOM_R50_SE BOM_R50_SW BOM_R50_NW BOM_R64_NE BOM_R64_SE BOM_R64_SW BOM_R64_NW BOM_ROCI BOM_POCI BOM_EYE BOM_POS_METHOD BOM_PRES_METHOD NADI_LAT NADI_LON NADI_CAT NADI_WIND NADI_PRES WELLINGTON_LAT WELLINGTON_LON WELLINGTON_WIND WELLINGTON_PRES DS824_LAT DS824_LON DS824_STAGE DS824_WIND DS824_PRES TD9636_LAT TD9636_LON TD9636_STAGE TD9636_WIND TD9636_PRES TD9635_LAT TD9635_LON TD9635_WIND TD9635_PRES TD9635_ROCI NEUMANN_LAT NEUMANN_LON NEUMANN_CLASS NEUMANN_WIND NEUMANN_PRES MLC_LAT MLC_LON MLC_CLASS MLC_WIND MLC_PRES USA_GUST BOM_GUST BOM_GUST_PER REUNION_GUST REUNION_GUST_PER USA_SEAHGT USA_SEARAD_NE USA_SEARAD_SE USA_SEARAD_SW USA_SEARAD_NW STORM_SPEED STORM_DIR
1980183N13250 1980 44 EP MM DARBY 1980-07-01 00:00:00 TS 13.2000 -110.400 30 hurdat_epa main 899 899 O________OO___ hurdat_epa EP041980 13.2000 -110.400 TD 30 -1 13.2000 -110.400 TC 30 13.2000 -110.400 1 30 14 262
1980183N13250 1980 44 EP MM DARBY 1980-07-01 03:00:00 TS 13.1012 -111.086 main 958 958 P________PP___ EP041980 13.1152 -111.075 TD 30 -1 13.1152 -111.075 TC 30 13.0451 -111.132 1 30 14 261
1980183N13250 1980 44 EP MM DARBY 1980-07-01 06:00:00 TS 12.9803 -111.814 30 hurdat_epa main 1019 1019 O________OP___ hurdat_epa EP041980 13.0000 -111.800 TD 30 -1 13.0000 -111.800 TC 30 12.9014 -111.871 1 30 15 260
1980183N13250 1980 44 EP MM DARBY 1980-07-01 09:00:00 TS 12.8304 -112.605 main 1096 1096 P________PP___ EP041980 12.8425 -112.600 TD 30 -1 12.8425 -112.600 TC 30 12.7820 -112.624 1 30 16 260
1980183N13250 1980 44 EP MM DARBY 1980-07-01 12:00:00 TS 12.7000 -113.400 30 hurdat_epa main 1166 1166 O________OO___ hurdat_epa EP041980 12.7000 -113.400 TD 30 -1 12.7000 -113.400 TC 30 12.7000 -113.400 1 30 15 262
1980183N13250 1980 44 EP MM DARBY 1980-07-01 15:00:00 TS 12.6225 -114.103 main 1230 1230 P________PP___ EP041980 12.6119 -114.078 TD 30 -1 12.6119 -114.078 TC 30 12.6652 -114.203 1 30 14 267
1980183N13250 1980 44 EP MM DARBY 1980-07-01 18:00:00 TS 12.6149 -114.845 30 hurdat_epa main 1259 1259 O________OP___ hurdat_epa EP041980 12.6000 -114.800 TD 30 -1 12.6000 -114.800 TC 30 12.6744 -115.027 1 30 16 273
1980183N13250 1980 44 EP MM DARBY 1980-07-01 21:00:00 TS 12.6984 -115.754 main 1295 1295 P________PP___ EP041980 12.6927 -115.727 TD 30 -1 12.6927 -115.727 TC 30 12.7214 -115.863 1 30 18 276
1980183N13250 1980 44 EP MM DARBY 1980-07-02 00:00:00 TS 12.8000 -116.700 30 hurdat_epa main 1333 1333 O________OO___ hurdat_epa EP041980 12.8000 -116.700 TD 30 -1 12.8000 -116.700 TC 30 12.8000 -116.700 1 30 18 273
1980183N13250 1980 44 EP MM DARBY 1980-07-02 03:00:00 TS 12.7960 -117.565 main 1386 1386 P________PP___ EP041980 12.7771 -117.573 TD 32 -1 12.7771 -117.573 TC 32 12.8713 -117.533 1 33 17 271
1980183N13250 1980 44 EP MM DARBY 1980-07-02 06:00:00 TS 12.8349 -118.393 35 hurdat_epa main 1436 1434 O________OP___ hurdat_epa EP041980 12.8000 -118.400 TS 35 0 12.8000 -118.400 TC 35 12.9743 -118.366 1 37 16 277
1980183N13250 1980 44 EP MM DARBY 1980-07-02 09:00:00 TS 12.9909 -119.222 main 1473 1473 P________PP___ EP041980 12.9599 -119.230 TS 40 0 12.9599 -119.230 TC 40 13.1151 -119.190 1 41 16 287
1980183N13250 1980 44 EP MM DARBY 1980-07-02 12:00:00 TS 13.3000 -120.000 45 hurdat_epa main 1505 1503 O________OO___ hurdat_epa EP041980 13.3000 -120.000 TS 45 0 13.3000 -120.000 TC 45 13.3000 -120.000 2 45 17 302
1980183N13250 1980 44 EP MM DARBY 1980-07-02 15:00:00 TS 13.8705 -120.661 main 1506 1496 P________PP___ EP041980 13.9443 -120.634 TS 45 0 13.9443 -120.634 TC 45 13.5752 -120.768 2 41 17 310
1980183N13250 1980 44 EP MM DARBY 1980-07-02 18:00:00 TS 14.3771 -121.345 45 hurdat_epa main 1500 1500 O________OP___ hurdat_epa EP041980 14.5000 -121.300 TS 45 0 14.5000 -121.300 TC 45 13.8855 -121.526 2 37 16 292
1980183N13250 1980 44 EP MM DARBY 1980-07-02 21:00:00 TS 14.4676 -122.184 main 1554 1554 P________PP___ EP041980 14.5399 -122.156 TS 37 0 14.5399 -122.156 TC 37 14.1781 -122.296 2 33 17 271
1980183N13250 1980 44 EP MM DARBY 1980-07-03 00:00:00 TS 14.4000 -123.100 30 hurdat_epa main 1627 1627 O________OO___ hurdat_epa EP041980 14.4000 -123.100 TD 30 -1 14.4000 -123.100 TC 30 14.4000 -123.100 1 30 18 268
1980183N13250 1980 44 EP MM DARBY 1980-07-03 03:00:00 TS 14.4089 -124.042 main 1695 1695 P________PP___ EP041980 14.3924 -124.057 TD 27 -1 14.3924 -124.057 TC 27 14.4749 -123.978 1 28 18 270
1980183N13250 1980 44 EP MM DARBY 1980-07-03 06:00:00 TS 14.4150 -124.978 25 hurdat_epa main 1772 1772 O________OP___ hurdat_epa EP041980 14.4000 -125.000 TD 25 -1 14.4000 -125.000 TC 25 14.4749 -124.888 1 27 18 270
1980183N13250 1980 44 EP MM DARBY 1980-07-03 09:00:00 TS 14.4071 -125.853 main 1844 1844 P________PP___ EP041980 14.3995 -125.865 TD 25 -1 14.3995 -125.865 TC 25 14.4374 -125.804 1 26 17 269
1980183N13250 1980 44 EP MM DARBY 1980-07-03 12:00:00 TS 14.4000 -126.700 25 hurdat_epa main 1910 1910 O________OO___ hurdat_epa EP041980 14.4000 -126.700 TD 25 -1 14.4000 -126.700 TC 25 14.4000 -126.700 1 25 16 270
1980183N13250 1980 44 EP MM DARBY 1980-07-03 15:00:00 TS 14.3988 -127.548 main 1970 1970 P________PP___ EP041980 14.4007 -127.545 TD 25 -1 14.4007 -127.545 TC 25 14.3911 -127.561 1 25 16 270
1980183N13250 1980 44 EP MM DARBY 1980-07-03 18:00:00 TS 14.4000 -128.400 25 hurdat_epa main 2032 O________OO___ hurdat_epa EP041980 14.4000 -128.400 TD 25 -1 14.4000 -128.400 TC 25 14.4000 -128.400 1 25 17 270

IBTrACS Databaseについて

本データベースは、米国NOAAが公開する1842年以降の世界の熱帯低気圧のベストトラックデータアーカイブInternational Best Track Archive for Climate Stewardship (IBTrACS)を、ウェブで閲覧しやすい形式に変換したものです。

最終更新日:2021-12-08